Time;durP1;ratioP1;P1;durP2;ratioP2;P2;SDS_P1;SDS_P2;PMS_P1;PMS_P2;Temp;Humidity;BMP_temperature;BMP_pressure;BME280_temperature;BME280_humidity;BME280_pressure;Samples;Min_cycle;Max_cycle;Signal;HPM_P1;HPM_P2
2021/01/17 00:01:58;;;;;;;8.57;7.32;;;;;;;;;;5070462;28;20062;-46
2021/01/17 00:04:23;;;;;;;13.90;8.95;;;;;;;;;;5070958;28;20111;-45
2021/01/17 00:06:48;;;;;;;33.58;27.85;;;;;;;;;;5086485;28;20028;-45
2021/01/17 00:09:14;;;;;;;43.00;35.17;;;;;;;;;;5070906;28;20029;-44
2021/01/17 00:11:39;;;;;;;35.10;27.20;;;;;;;;;;5070644;28;20502;-47
2021/01/17 00:14:04;;;;;;;36.35;28.40;;;;;;;;;;5070748;28;20038;-43
2021/01/17 00:16:30;;;;;;;38.45;28.00;;;;;;;;;;5070762;28;20025;-52
2021/01/17 00:18:55;;;;;;;31.35;26.90;;;;;;;;;;5071092;28;20021;-44
2021/01/17 00:21:20;;;;;;;35.45;26.80;;;;;;;;;;5070729;28;20028;-46
2021/01/17 00:23:46;;;;;;;33.47;24.40;;;;;;;;;;5070701;28;20035;-42
2021/01/17 00:26:11;;;;;;;34.17;27.30;;;;;;;;;;5070819;28;20036;-42
2021/01/17 00:28:36;;;;;;;39.65;30.00;;;;;;;;;;5069312;28;20052;-48
2021/01/17 00:31:01;;;;;;;35.25;27.73;;;;;;;;;;5070444;28;20377;-44
2021/01/17 00:33:27;;;;;;;32.10;28.75;;;;;;;;;;5070081;28;20135;-45
2021/01/17 00:35:52;;;;;;;39.10;28.38;;;;;;;;;;5070669;28;20078;-45
2021/01/17 00:38:17;;;;;;;42.20;29.52;;;;;;;;;;5070404;28;20112;-42
2021/01/17 00:40:43;;;;;;;33.38;29.88;;;;;;;;;;5070674;28;20063;-44
2021/01/17 00:43:08;;;;;;;35.25;31.48;;;;;;;;;;5085395;28;20028;-44
2021/01/17 00:45:33;;;;;;;34.15;29.83;;;;;;;;;;5070403;28;20028;-42
2021/01/17 00:47:58;;;;;;;35.95;28.13;;;;;;;;;;5070618;28;20028;-48
2021/01/17 00:50:25;;;;;;;36.50;25.80;;;;;;;;;;5070173;28;20064;-44
2021/01/17 00:52:51;;;;;;;28.55;23.60;;;;;;;;;;5069837;28;20064;-41
2021/01/17 00:55:16;;;;;;;27.27;22.15;;;;;;;;;;5069469;28;20024;-46
2021/01/17 00:57:42;;;;;;;34.42;23.63;;;;;;;;;;5070428;28;20036;-43
2021/01/17 01:00:10;;;;;;;29.90;21.75;;;;;;;;;;5070527;28;20445;-42
2021/01/17 01:02:37;;;;;;;20.45;16.60;;;;;;;;;;5069957;28;20028;-42
2021/01/17 01:05:03;;;;;;;21.23;18.88;;;;;;;;;;5070214;28;20012;-44
2021/01/17 01:07:28;;;;;;;24.08;20.25;;;;;;;;;;5070091;28;20024;-42
2021/01/17 01:09:53;;;;;;;37.75;29.55;;;;;;;;;;5064848;28;20021;-44
2021/01/17 01:12:19;;;;;;;39.30;26.67;;;;;;;;;;5068538;28;20691;-43
2021/01/17 01:14:44;;;;;;;27.98;24.50;;;;;;;;;;5070221;28;20029;-44
2021/01/17 01:17:09;;;;;;;24.98;22.42;;;;;;;;;;5069862;28;20025;-45
2021/01/17 01:19:34;;;;;;;20.05;17.75;;;;;;;;;;5070256;28;20029;-43
2021/01/17 01:22:03;;;;;;;18.85;14.85;;;;;;;;;;5069910;28;20358;-47
2021/01/17 01:24:32;;;;;;;20.90;17.52;;;;;;;;;;5069813;28;20086;-41
2021/01/17 01:26:57;;;;;;;21.60;16.42;;;;;;;;;;5070127;28;20028;-47
2021/01/17 01:29:23;;;;;;;19.95;16.70;;;;;;;;;;5069545;28;20055;-45
2021/01/17 01:31:48;;;;;;;15.25;12.93;;;;;;;;;;5069845;28;20376;-47
2021/01/17 01:34:14;;;;;;;18.30;14.27;;;;;;;;;;5069679;28;20063;-42
2021/01/17 01:36:40;;;;;;;17.55;13.05;;;;;;;;;;5069763;28;20032;-44
2021/01/17 01:39:07;;;;;;;19.90;13.02;;;;;;;;;;5085507;28;20078;-49
2021/01/17 01:41:33;;;;;;;20.27;15.32;;;;;;;;;;5069881;28;20500;-42
2021/01/17 01:43:58;;;;;;;31.52;16.17;;;;;;;;;;5070124;28;20032;-47
2021/01/17 01:46:25;;;;;;;47.78;37.13;;;;;;;;;;5069739;28;20042;-47
2021/01/17 01:48:52;;;;;;;24.83;18.92;;;;;;;;;;5069904;28;20455;-47
2021/01/17 01:51:18;;;;;;;25.17;17.00;;;;;;;;;;5069918;28;20051;-46
2021/01/17 01:53:44;;;;;;;18.67;16.70;;;;;;;;;;5069481;28;20469;-43
2021/01/17 01:56:09;;;;;;;33.55;21.92;;;;;;;;;;5068986;28;20025;-44
2021/01/17 01:58:36;;;;;;;25.48;19.92;;;;;;;;;;5070037;28;20599;-45
2021/01/17 02:01:02;;;;;;;33.05;18.65;;;;;;;;;;5085229;28;20028;-48
2021/01/17 02:03:27;;;;;;;28.67;19.17;;;;;;;;;;5070084;28;20089;-47
2021/01/17 02:05:53;;;;;;;21.73;17.23;;;;;;;;;;5070875;28;20021;-44
2021/01/17 02:08:37;;;;;;;26.25;16.85;;;;;;;;;;5072977;28;20521;-43
2021/01/17 02:11:08;;;;;;;25.55;19.10;;;;;;;;;;5073307;28;20032;-42
2021/01/17 02:13:46;;;;;;;22.33;18.60;;;;;;;;;;5073388;28;20059;-42
2021/01/17 02:16:11;;;;;;;25.17;19.77;;;;;;;;;;5086672;28;20016;-43
2021/01/17 02:18:40;;;;;;;34.83;20.40;;;;;;;;;;5073265;28;20430;-47
2021/01/17 02:21:07;;;;;;;23.38;19.13;;;;;;;;;;5073237;28;20044;-47
2021/01/17 02:23:39;;;;;;;25.48;19.55;;;;;;;;;;5073199;28;20032;-49
2021/01/17 02:26:04;;;;;;;;;;;;;;;;;;5073314;28;20020;-50
2021/01/17 02:28:29;;;;;;;20.75;14.80;;;;;;;;;;5072995;28;19927;-47
2021/01/17 02:30:55;;;;;;;21.30;16.17;;;;;;;;;;5072888;28;20024;-48
2021/01/17 02:33:28;;;;;;;23.67;17.65;;;;;;;;;;5072635;28;20094;-43
2021/01/17 02:36:12;;;;;;;20.65;16.50;;;;;;;;;;5088121;28;20044;-44
2021/01/17 02:38:55;;;;;;;25.48;16.83;;;;;;;;;;5072646;28;20163;-48
2021/01/17 02:41:44;;;;;;;18.67;15.93;;;;;;;;;;5072472;28;20029;-47
2021/01/17 02:44:09;;;;;;;24.67;16.10;;;;;;;;;;5071055;28;20032;-45
2021/01/17 02:46:34;;;;;;;15.63;11.52;;;;;;;;;;5071894;28;20031;-43
2021/01/17 02:48:59;;;;;;;18.00;13.93;;;;;;;;;;5072646;28;20036;-44
2021/01/17 02:51:26;;;;;;;15.45;13.68;;;;;;;;;;5072602;28;20089;-44
2021/01/17 02:53:54;;;;;;;18.30;13.73;;;;;;;;;;5072188;28;20032;-45
2021/01/17 02:56:20;;;;;;;16.38;13.32;;;;;;;;;;5072422;28;20063;-44
2021/01/17 02:58:49;;;;;;;13.82;12.35;;;;;;;;;;5071894;28;20473;-43
2021/01/17 03:01:18;;;;;;;14.25;12.75;;;;;;;;;;5071874;28;20035;-47
2021/01/17 03:03:46;;;;;;;18.27;12.48;;;;;;;;;;5071394;28;20108;-41
2021/01/17 03:06:11;;;;;;;13.50;10.50;;;;;;;;;;5072297;28;20361;-45
2021/01/17 03:08:37;;;;;;;15.85;11.00;;;;;;;;;;5072287;28;20033;-44
2021/01/17 03:11:03;;;;;;;15.43;10.43;;;;;;;;;;5071998;28;20027;-43
2021/01/17 03:13:29;;;;;;;14.98;10.77;;;;;;;;;;5072242;28;20037;-41
2021/01/17 03:15:54;;;;;;;15.23;7.43;;;;;;;;;;5071566;28;20099;-42
2021/01/17 03:18:20;;;;;;;15.18;8.75;;;;;;;;;;5071869;28;20121;-44
2021/01/17 03:20:45;;;;;;;16.48;9.27;;;;;;;;;;5071903;28;20127;-44
2021/01/17 03:23:10;;;;;;;12.40;9.35;;;;;;;;;;5071636;28;20407;-44
2021/01/17 03:25:36;;;;;;;16.33;9.65;;;;;;;;;;5071875;28;20031;-46
2021/01/17 03:28:01;;;;;;;12.63;8.00;;;;;;;;;;5071469;28;20052;-44
2021/01/17 03:30:26;;;;;;;9.48;5.93;;;;;;;;;;5071425;28;20085;-43
2021/01/17 03:32:51;;;;;;;7.78;7.03;;;;;;;;;;5071331;28;20106;-43
2021/01/17 03:35:17;;;;;;;9.30;6.13;;;;;;;;;;5071454;28;20074;-45
2021/01/17 03:37:42;;;;;;;4.85;4.15;;;;;;;;;;5071391;28;20064;-43
2021/01/17 03:40:07;;;;;;;4.90;3.88;;;;;;;;;;5071288;28;20106;-44
2021/01/17 03:42:33;;;;;;;14.43;5.80;;;;;;;;;;5063847;28;20464;-43
2021/01/17 03:44:58;;;;;;;9.57;6.00;;;;;;;;;;5071343;28;20024;-44
2021/01/17 03:47:24;;;;;;;8.55;6.72;;;;;;;;;;5070974;28;20040;-42
2021/01/17 03:49:49;;;;;;;7.57;4.28;;;;;;;;;;5071256;28;20078;-42
2021/01/17 03:52:14;;;;;;;9.20;8.23;;;;;;;;;;5070849;28;20029;-41
2021/01/17 03:54:40;;;;;;;9.38;6.68;;;;;;;;;;5070723;28;20115;-44
2021/01/17 03:57:05;;;;;;;13.70;7.93;;;;;;;;;;5070854;28;20032;-46
2021/01/17 03:59:30;;;;;;;9.85;6.00;;;;;;;;;;5070008;28;20056;-48
2021/01/17 04:01:55;;;;;;;8.13;4.60;;;;;;;;;;5070768;28;20464;-43
2021/01/17 04:04:21;;;;;;;6.85;4.53;;;;;;;;;;5071115;28;20099;-42
2021/01/17 04:06:46;;;;;;;9.25;4.90;;;;;;;;;;5070815;28;20043;-42
2021/01/17 04:09:11;;;;;;;8.60;5.55;;;;;;;;;;5086460;28;20029;-41
2021/01/17 04:11:37;;;;;;;11.60;4.25;;;;;;;;;;5070665;28;20042;-43
2021/01/17 04:14:02;;;;;;;15.32;8.52;;;;;;;;;;5070717;28;20139;-41
2021/01/17 04:16:27;;;;;;;10.40;6.75;;;;;;;;;;5071249;28;20025;-42
2021/01/17 04:18:53;;;;;;;11.20;5.57;;;;;;;;;;5070837;28;20453;-43
2021/01/17 04:21:18;;;;;;;9.57;5.88;;;;;;;;;;5070770;28;20544;-42
2021/01/17 04:23:43;;;;;;;9.82;4.78;;;;;;;;;;5070524;28;20508;-41
2021/01/17 04:26:09;;;;;;;9.20;5.68;;;;;;;;;;5070627;28;20023;-41
2021/01/17 04:28:35;;;;;;;8.05;4.45;;;;;;;;;;5068981;28;20072;-43
2021/01/17 04:31:01;;;;;;;11.38;6.72;;;;;;;;;;5085876;28;20032;-44
2021/01/17 04:33:26;;;;;;;11.07;6.00;;;;;;;;;;5070276;28;20028;-41
2021/01/17 04:35:51;;;;;;;9.73;5.65;;;;;;;;;;5070531;28;20021;-43
2021/01/17 04:38:16;;;;;;;10.75;6.50;;;;;;;;;;5070134;28;20041;-43
2021/01/17 04:40:42;;;;;;;8.30;6.45;;;;;;;;;;5070516;28;20054;-41
2021/01/17 04:43:08;;;;;;;8.00;7.25;;;;;;;;;;5069931;28;20102;-45
2021/01/17 04:45:34;;;;;;;6.95;5.35;;;;;;;;;;5070149;28;20484;-43
2021/01/17 04:48:01;;;;;;;8.38;6.50;;;;;;;;;;5070320;28;20028;-42
2021/01/17 04:50:28;;;;;;;10.63;7.28;;;;;;;;;;5070266;28;20083;-43
2021/01/17 04:52:56;;;;;;;12.20;7.93;;;;;;;;;;5069832;28;20036;-45
2021/01/17 04:55:23;;;;;;;10.70;6.43;;;;;;;;;;5070148;28;20473;-44
2021/01/17 04:57:52;;;;;;;10.23;7.65;;;;;;;;;;5070147;28;20036;-43
2021/01/17 05:00:37;;;;;;;9.20;7.00;;;;;;;;;;5070152;28;20691;-44
2021/01/17 05:03:09;;;;;;;9.75;6.00;;;;;;;;;;5069796;28;20385;-44
2021/01/17 05:05:46;;;;;;;8.70;6.63;;;;;;;;;;5069072;28;20024;-42
2021/01/17 05:08:27;;;;;;;7.72;6.38;;;;;;;;;;5063988;28;20355;-41
2021/01/17 05:11:05;;;;;;;12.23;5.88;;;;;;;;;;5065660;28;20525;-41
2021/01/17 05:13:33;;;;;;;15.02;8.10;;;;;;;;;;5069931;28;20036;-43
2021/01/17 05:16:02;;;;;;;21.70;14.00;;;;;;;;;;5069749;28;20054;-41
2021/01/17 05:18:29;;;;;;;15.65;12.60;;;;;;;;;;5064506;28;20123;-42
2021/01/17 05:20:56;;;;;;;12.90;8.50;;;;;;;;;;5067678;28;20033;-41
2021/01/17 05:23:21;;;;;;;16.50;8.18;;;;;;;;;;5070001;28;20071;-43
2021/01/17 05:25:48;;;;;;;9.80;7.70;;;;;;;;;;5070195;28;20068;-43
2021/01/17 05:28:14;;;;;;;10.07;8.65;;;;;;;;;;5069714;28;20330;-42
2021/01/17 05:30:44;;;;;;;19.88;7.70;;;;;;;;;;5069921;28;20032;-44
2021/01/17 05:33:09;;;;;;;11.25;6.25;;;;;;;;;;5069963;28;20029;-42
2021/01/17 05:35:35;;;;;;;6.15;4.65;;;;;;;;;;5070329;28;20031;-45
2021/01/17 05:38:00;;;;;;;15.48;7.72;;;;;;;;;;5070197;28;20128;-45
2021/01/17 05:40:31;;;;;;;7.28;6.20;;;;;;;;;;5072450;28;20024;-42
2021/01/17 05:42:57;;;;;;;9.73;6.05;;;;;;;;;;5073939;28;20115;-43
2021/01/17 05:45:23;;;;;;;16.80;6.82;;;;;;;;;;5089142;28;20158;-43
2021/01/17 05:47:58;;;;;;;7.72;6.03;;;;;;;;;;5073236;28;20033;-44
2021/01/17 05:50:24;;;;;;;14.05;7.00;;;;;;;;;;5073669;28;20036;-43
2021/01/17 05:52:53;;;;;;;9.90;5.20;;;;;;;;;;5073165;28;20385;-41
2021/01/17 05:55:27;;;;;;;13.07;6.40;;;;;;;;;;5073091;28;20044;-43
2021/01/17 05:57:52;;;;;;;5.30;4.53;;;;;;;;;;5073281;28;20032;-37
2021/01/17 06:00:31;;;;;;;8.65;7.25;;;;;;;;;;5073321;28;20404;-38
2021/01/17 06:02:56;;;;;;;4.43;3.30;;;;;;;;;;5072865;28;20398;-36
2021/01/17 06:05:22;;;;;;;10.05;4.80;;;;;;;;;;5067553;28;20028;-39
2021/01/17 06:07:48;;;;;;;10.77;6.82;;;;;;;;;;5073398;28;20140;-38
2021/01/17 06:10:20;;;;;;;15.55;7.68;;;;;;;;;;5073164;28;20035;-36
2021/01/17 06:12:49;;;;;;;6.25;4.38;;;;;;;;;;5073250;28;20036;-44
2021/01/17 06:15:14;;;;;;;10.48;5.80;;;;;;;;;;5072978;28;20016;-36
2021/01/17 06:17:47;;;;;;;7.32;5.97;;;;;;;;;;5073042;28;20491;-36
2021/01/17 06:20:24;;;;;;;8.70;4.80;;;;;;;;;;5088846;28;20033;-36
2021/01/17 06:22:59;;;;;;;10.07;5.90;;;;;;;;;;5067545;28;20028;-37
2021/01/17 06:25:33;;;;;;;14.48;5.38;;;;;;;;;;5066752;28;20021;-36
2021/01/17 06:28:08;;;;;;;7.70;5.60;;;;;;;;;;5066859;28;20062;-40
2021/01/17 06:30:33;;;;;;;10.35;5.63;;;;;;;;;;5068190;28;20082;-37
2021/01/17 06:32:59;;;;;;;12.63;6.00;;;;;;;;;;5072973;28;20036;-37
2021/01/17 06:35:34;;;;;;;6.78;6.07;;;;;;;;;;5072436;28;20028;-36
2021/01/17 06:38:13;;;;;;;6.25;5.22;;;;;;;;;;5072480;28;20032;-37
2021/01/17 06:40:40;;;;;;;9.27;6.50;;;;;;;;;;5072683;28;20047;-37
2021/01/17 06:43:09;;;;;;;9.50;6.38;;;;;;;;;;5071916;28;20044;-37
2021/01/17 06:45:42;;;;;;;8.90;7.05;;;;;;;;;;5072681;28;20051;-39
2021/01/17 06:48:08;;;;;;;10.52;7.53;;;;;;;;;;5087634;28;20040;-42
2021/01/17 06:50:34;;;;;;;8.45;6.63;;;;;;;;;;5072556;28;20431;-43
2021/01/17 06:52:59;;;;;;;9.70;6.32;;;;;;;;;;5071671;28;20025;-36
2021/01/17 06:55:25;;;;;;;19.30;7.35;;;;;;;;;;5072143;28;20024;-37
2021/01/17 06:57:51;;;;;;;6.38;4.90;;;;;;;;;;5072210;28;20635;-36
2021/01/17 07:00:17;;;;;;;9.13;4.43;;;;;;;;;;5072342;28;20103;-37
2021/01/17 07:03:05;;;;;;;20.92;7.88;;;;;;;;;;5072301;28;20159;-36
2021/01/17 07:05:44;;;;;;;16.55;8.27;;;;;;;;;;5070879;28;20477;-41
2021/01/17 07:08:09;;;;;;;10.68;7.22;;;;;;;;;;5067361;28;20075;-38
2021/01/17 07:10:38;;;;;;;9.65;6.07;;;;;;;;;;5064371;28;20024;-37
2021/01/17 07:13:04;;;;;;;7.80;6.90;;;;;;;;;;5069320;28;20373;-43
2021/01/17 07:15:34;;;;;;;8.90;5.68;;;;;;;;;;5072000;28;20027;-37
2021/01/17 07:17:59;;;;;;;10.02;6.93;;;;;;;;;;5071888;28;20111;-37
2021/01/17 07:20:27;;;;;;;13.05;6.63;;;;;;;;;;5072320;28;20028;-36
2021/01/17 07:22:53;;;;;;;9.07;6.38;;;;;;;;;;5071300;28;20111;-37
2021/01/17 07:25:20;;;;;;;10.25;7.47;;;;;;;;;;5071822;28;20023;-38
2021/01/17 07:27:51;;;;;;;10.38;7.05;;;;;;;;;;5071655;28;20457;-41
2021/01/17 07:30:20;;;;;;;8.88;7.57;;;;;;;;;;5071420;28;20508;-40
2021/01/17 07:32:53;;;;;;;11.25;8.98;;;;;;;;;;5071727;28;20060;-39
2021/01/17 07:35:23;;;;;;;9.55;6.28;;;;;;;;;;5071610;28;20103;-37
2021/01/17 07:37:52;;;;;;;10.18;8.93;;;;;;;;;;5071280;28;20036;-38
2021/01/17 07:40:48;;;;;;;8.52;7.03;;;;;;;;;;5071224;28;20059;-38
2021/01/17 07:43:05;;;;;;;13.98;10.35;;;;;;;;;;5071054;28;20123;-37
2021/01/17 07:45:36;;;;;;;22.27;16.95;;;;;;;;;;5071135;28;20111;-39
2021/01/17 07:48:05;;;;;;;19.25;16.20;;;;;;;;;;5058237;28;20027;-41
2021/01/17 07:50:34;;;;;;;25.15;15.32;;;;;;;;;;5060312;28;20043;-44
2021/01/17 07:53:01;;;;;;;22.85;14.20;;;;;;;;;;5064143;28;20036;-42
2021/01/17 07:55:27;;;;;;;22.02;16.88;;;;;;;;;;5078578;28;20024;-37
2021/01/17 07:57:52;;;;;;;32.65;22.83;;;;;;;;;;5061257;28;20080;-39
2021/01/17 08:00:23;;;;;;;20.15;15.52;;;;;;;;;;5067823;28;20033;-39
2021/01/17 08:02:49;;;;;;;20.13;15.52;;;;;;;;;;5067135;28;20757;-38
2021/01/17 08:05:14;;;;;;;20.58;15.52;;;;;;;;;;5067755;28;20072;-40
2021/01/17 08:07:40;;;;;;;18.80;16.92;;;;;;;;;;5068148;28;20146;-39
2021/01/17 08:10:06;;;;;;;24.10;14.93;;;;;;;;;;5067833;28;20465;-38
2021/01/17 08:12:32;;;;;;;18.08;15.27;;;;;;;;;;5067697;28;20032;-41
2021/01/17 08:15:09;;;;;;;18.95;14.82;;;;;;;;;;5064353;28;20020;-43
2021/01/17 08:17:38;;;;;;;32.83;18.75;;;;;;;;;;5061077;28;20032;-39
2021/01/17 08:20:05;;;;;;;45.08;38.45;;;;;;;;;;5066772;28;20024;-47
2021/01/17 08:22:30;;;;;;;27.48;24.58;;;;;;;;;;5062539;28;20062;-50
2021/01/17 08:24:56;;;;;;;22.45;18.60;;;;;;;;;;5061322;28;20020;-38
2021/01/17 08:27:29;;;;;;;21.55;17.23;;;;;;;;;;5063320;28;20035;-38
2021/01/17 08:30:00;;;;;;;21.63;19.48;;;;;;;;;;5067432;28;20500;-39
2021/01/17 08:32:30;;;;;;;33.45;21.30;;;;;;;;;;5067662;28;20111;-38
2021/01/17 08:34:56;;;;;;;22.90;20.50;;;;;;;;;;5067326;28;20409;-39
2021/01/17 08:37:21;;;;;;;26.17;23.38;;;;;;;;;;5067204;28;20024;-42
2021/01/17 08:39:47;;;;;;;47.38;34.20;;;;;;;;;;5067578;28;20024;-41
2021/01/17 08:42:33;;;;;;;46.95;34.30;;;;;;;;;;5067240;28;20025;-41
2021/01/17 08:44:58;;;;;;;45.00;32.70;;;;;;;;;;5067437;28;20037;-40
2021/01/17 08:47:24;;;;;;;40.15;30.45;;;;;;;;;;5066495;28;20028;-41
2021/01/17 08:49:49;;;;;;;36.42;32.63;;;;;;;;;;5067251;28;20043;-39
2021/01/17 08:52:25;;;;;;;35.47;27.83;;;;;;;;;;5063263;28;20024;-43
2021/01/17 08:54:50;;;;;;;52.97;33.38;;;;;;;;;;5065468;28;20035;-41
2021/01/17 08:57:34;;;;;;;37.85;31.67;;;;;;;;;;5066968;28;20024;-39
2021/01/17 08:59:59;;;;;;;42.80;37.08;;;;;;;;;;5066826;28;20407;-40
2021/01/17 09:02:25;;;;;;;34.15;23.58;;;;;;;;;;5066282;28;20024;-39
2021/01/17 09:04:51;;;;;;;25.85;23.08;;;;;;;;;;5066727;28;20032;-40
2021/01/17 09:07:35;;;;;;;29.52;22.75;;;;;;;;;;5066753;28;20021;-39
2021/01/17 09:10:05;;;;;;;28.73;22.63;;;;;;;;;;5098390;28;20415;-41
2021/01/17 09:12:33;;;;;;;28.98;24.92;;;;;;;;;;5066908;28;20047;-41
2021/01/17 09:14:59;;;;;;;33.58;24.58;;;;;;;;;;5066970;28;20032;-49
2021/01/17 09:17:25;;;;;;;32.40;23.92;;;;;;;;;;5071025;28;20035;-54
2021/01/17 09:19:55;;;;;;;26.25;21.35;;;;;;;;;;5068765;28;20028;-52
2021/01/17 09:22:21;;;;;;;34.13;25.08;;;;;;;;;;5065943;28;20472;-50
2021/01/17 09:24:48;;;;;;;29.65;23.98;;;;;;;;;;5064330;28;20074;-55
2021/01/17 09:27:13;;;;;;;25.15;22.48;;;;;;;;;;5067150;28;20062;-45
2021/01/17 09:29:39;;;;;;;27.00;21.50;;;;;;;;;;5068695;28;20417;-49
2021/01/17 09:32:06;;;;;;;30.90;27.13;;;;;;;;;;5068683;28;20036;-53
2021/01/17 09:34:39;;;;;;;29.98;25.30;;;;;;;;;;5069068;28;20044;-53
2021/01/17 09:37:09;;;;;;;40.53;29.73;;;;;;;;;;5069166;28;20075;-54
2021/01/17 09:39:35;;;;;;;37.22;30.02;;;;;;;;;;5069092;28;20033;-49
2021/01/17 09:42:01;;;;;;;60.85;33.00;;;;;;;;;;5068839;28;20054;-54
2021/01/17 09:44:27;;;;;;;46.40;39.20;;;;;;;;;;5069336;28;20028;-53
2021/01/17 09:46:53;;;;;;;32.13;28.58;;;;;;;;;;5069794;28;20025;-50
2021/01/17 09:49:22;;;;;;;12.55;11.32;;;;;;;;;;5069252;28;20040;-51
2021/01/17 09:51:48;;;;;;;13.40;10.25;;;;;;;;;;5070044;28;20045;-51
2021/01/17 09:54:13;;;;;;;20.75;17.48;;;;;;;;;;5070791;28;20049;-51
2021/01/17 09:56:42;;;;;;;15.98;14.02;;;;;;;;;;5069259;28;20103;-47
2021/01/17 09:59:24;;;;;;;32.72;22.48;;;;;;;;;;5064264;28;20031;-46
2021/01/17 10:01:49;;;;;;;;;;;;;;;;;;5066937;28;20127;-50
2021/01/17 10:04:21;;;;;;;19.02;15.70;;;;;;;;;;5067994;28;19991;-50
2021/01/17 10:06:47;;;;;;;18.13;13.45;;;;;;;;;;5063273;28;20498;-51
2021/01/17 10:09:16;;;;;;;24.65;16.10;;;;;;;;;;5062363;28;20021;-45
2021/01/17 10:11:41;;;;;;;26.02;18.45;;;;;;;;;;5063182;28;20110;-58
2021/01/17 10:14:07;;;;;;;26.85;23.73;;;;;;;;;;5069911;28;20032;-50
2021/01/17 10:16:32;;;;;;;24.23;18.73;;;;;;;;;;5069465;28;20526;-52
2021/01/17 10:19:05;;;;;;;33.05;23.88;;;;;;;;;;5068393;28;20036;-46
2021/01/17 10:21:31;;;;;;;27.20;19.52;;;;;;;;;;5064516;28;20029;-54
2021/01/17 10:23:56;;;;;;;14.05;12.63;;;;;;;;;;5068417;28;20016;-50
2021/01/17 10:26:23;;;;;;;18.77;16.77;;;;;;;;;;5067868;28;20047;-57
2021/01/17 10:28:48;;;;;;;12.43;9.27;;;;;;;;;;5069926;28;20790;-55
2021/01/17 10:31:16;;;;;;;17.25;11.60;;;;;;;;;;5069832;28;20048;-49
2021/01/17 10:33:41;;;;;;;15.85;14.20;;;;;;;;;;5069903;28;20021;-49
2021/01/17 10:36:10;;;;;;;23.08;15.98;;;;;;;;;;5069854;28;20033;-51
2021/01/17 10:38:35;;;;;;;30.73;11.18;;;;;;;;;;5084503;28;20413;-50
2021/01/17 10:41:00;;;;;;;16.70;11.93;;;;;;;;;;5068818;28;20051;-47
2021/01/17 10:43:29;;;;;;;13.75;11.25;;;;;;;;;;5069717;28;20740;-52
2021/01/17 10:46:00;;;;;;;14.68;13.27;;;;;;;;;;5069407;28;20020;-47
2021/01/17 10:48:26;;;;;;;14.48;11.00;;;;;;;;;;5068980;28;20025;-52
2021/01/17 10:51:12;;;;;;;10.73;7.45;;;;;;;;;;5068870;28;20040;-49
2021/01/17 10:53:37;;;;;;;10.15;3.40;;;;;;;;;;5069242;28;20044;-48
2021/01/17 10:56:03;;;;;;;10.07;4.70;;;;;;;;;;5069415;28;20074;-50
2021/01/17 10:58:33;;;;;;;9.13;6.43;;;;;;;;;;5067550;28;20020;-45
2021/01/17 11:00:59;;;;;;;9.63;7.60;;;;;;;;;;5067957;28;20032;-49
2021/01/17 11:03:29;;;;;;;10.93;5.40;;;;;;;;;;5063508;28;20025;-50
2021/01/17 11:06:10;;;;;;;9.85;6.60;;;;;;;;;;5065908;28;20033;-50
2021/01/17 11:08:55;;;;;;;8.57;5.80;;;;;;;;;;5067023;28;20035;-49
2021/01/17 11:11:24;;;;;;;8.63;6.95;;;;;;;;;;5064700;28;20357;-49
2021/01/17 11:13:57;;;;;;;11.55;7.03;;;;;;;;;;5069153;28;20039;-47
2021/01/17 11:16:40;;;;;;;9.77;6.00;;;;;;;;;;5068679;28;20032;-53
2021/01/17 11:19:07;;;;;;;16.80;6.15;;;;;;;;;;5069229;28;20059;-49
2021/01/17 11:21:33;;;;;;;7.43;5.28;;;;;;;;;;5068579;28;20033;-52
2021/01/17 11:23:58;;;;;;;12.60;5.68;;;;;;;;;;5068834;28;20044;-52
2021/01/17 11:26:24;;;;;;;11.30;4.70;;;;;;;;;;5068629;28;20033;-47
2021/01/17 11:28:51;;;;;;;7.18;5.15;;;;;;;;;;5077804;28;20052;-45
2021/01/17 11:31:16;;;;;;;8.88;5.63;;;;;;;;;;5067518;28;20059;-48
2021/01/17 11:33:42;;;;;;;7.00;5.13;;;;;;;;;;5067950;28;20465;-52
2021/01/17 11:36:08;;;;;;;9.30;6.25;;;;;;;;;;5068346;28;20036;-49
2021/01/17 11:38:45;;;;;;;10.27;5.25;;;;;;;;;;5066325;28;20028;-52
2021/01/17 11:41:11;;;;;;;11.35;6.55;;;;;;;;;;5068478;28;20543;-54
2021/01/17 11:43:37;;;;;;;14.23;5.07;;;;;;;;;;5068609;28;20029;-47
2021/01/17 11:46:06;;;;;;;6.95;3.65;;;;;;;;;;5067857;28;20035;-55
2021/01/17 11:48:32;;;;;;;9.48;3.33;;;;;;;;;;5066890;28;20415;-58
2021/01/17 11:50:58;;;;;;;5.93;2.65;;;;;;;;;;5069684;28;20064;-55
2021/01/17 11:53:25;;;;;;;6.75;3.40;;;;;;;;;;5082892;28;20135;-61
2021/01/17 11:55:50;;;;;;;3.60;3.25;;;;;;;;;;5068025;28;20107;-48
2021/01/17 11:58:16;;;;;;;8.85;3.53;;;;;;;;;;5068490;28;20103;-51
2021/01/17 12:00:49;;;;;;;4.30;2.75;;;;;;;;;;5061187;28;20033;-55
2021/01/17 12:03:21;;;;;;;4.68;2.55;;;;;;;;;;5066804;28;20031;-57
2021/01/17 12:05:56;;;;;;;10.38;2.75;;;;;;;;;;5068025;28;20036;-52
2021/01/17 12:08:21;;;;;;;5.57;2.05;;;;;;;;;;5065152;28;20032;-59
2021/01/17 12:10:53;;;;;;;6.45;3.15;;;;;;;;;;5064718;28;20040;-54
2021/01/17 12:13:18;;;;;;;4.75;2.92;;;;;;;;;;5082739;28;20111;-56
2021/01/17 12:15:44;;;;;;;6.93;3.45;;;;;;;;;;5066244;28;20445;-48
2021/01/17 12:18:09;;;;;;;3.53;2.17;;;;;;;;;;5082314;28;20111;-56
2021/01/17 12:20:34;;;;;;;3.30;1.98;;;;;;;;;;5066824;28;20060;-52
2021/01/17 12:22:59;;;;;;;4.55;3.25;;;;;;;;;;5066638;28;20039;-60
2021/01/17 12:25:25;;;;;;;5.80;3.58;;;;;;;;;;5066850;28;20033;-57
2021/01/17 12:27:50;;;;;;;9.20;3.38;;;;;;;;;;5066387;28;20069;-57
2021/01/17 12:30:17;;;;;;;6.50;3.13;;;;;;;;;;5065633;28;20029;-52
2021/01/17 12:32:42;;;;;;;3.95;2.60;;;;;;;;;;5064360;28;20032;-62
2021/01/17 12:35:07;;;;;;;5.25;2.92;;;;;;;;;;5065635;28;20470;-51
2021/01/17 12:37:33;;;;;;;3.58;2.30;;;;;;;;;;5061540;28;20457;-54
2021/01/17 12:39:58;;;;;;;5.43;2.85;;;;;;;;;;5065693;28;20028;-55
2021/01/17 12:42:23;;;;;;;5.05;2.10;;;;;;;;;;5064391;28;20028;-54
2021/01/17 12:44:49;;;;;;;4.20;2.45;;;;;;;;;;5066578;28;20110;-55
2021/01/17 12:47:14;;;;;;;11.80;2.97;;;;;;;;;;5080607;28;20781;-56
2021/01/17 12:49:39;;;;;;;6.38;1.52;;;;;;;;;;5065966;28;20131;-58
2021/01/17 12:52:05;;;;;;;4.20;3.05;;;;;;;;;;5081496;28;20675;-54
2021/01/17 12:54:30;;;;;;;8.30;2.60;;;;;;;;;;5066760;28;20060;-54
2021/01/17 12:56:56;;;;;;;4.97;1.77;;;;;;;;;;5067003;28;20089;-55
2021/01/17 12:59:21;;;;;;;4.90;2.53;;;;;;;;;;5065488;28;20048;-55
2021/01/17 13:01:47;;;;;;;1.45;1.02;;;;;;;;;;5065299;28;20036;-58
2021/01/17 13:04:12;;;;;;;3.17;1.15;;;;;;;;;;5066881;28;20489;-50
2021/01/17 13:06:37;;;;;;;6.20;2.00;;;;;;;;;;5067699;28;20040;-54
2021/01/17 13:09:03;;;;;;;14.75;1.73;;;;;;;;;;5067489;28;20036;-50
2021/01/17 13:11:28;;;;;;;5.97;2.80;;;;;;;;;;5067467;28;20036;-54
2021/01/17 13:13:53;;;;;;;8.52;3.13;;;;;;;;;;5067360;28;20024;-52
2021/01/17 13:16:19;;;;;;;3.53;2.47;;;;;;;;;;5067611;28;20029;-58
2021/01/17 13:18:45;;;;;;;2.08;1.08;;;;;;;;;;5082432;28;20420;-53
2021/01/17 13:21:11;;;;;;;6.43;3.03;;;;;;;;;;5081258;28;20037;-53
2021/01/17 13:23:37;;;;;;;7.05;2.42;;;;;;;;;;5066464;28;20028;-56
2021/01/17 13:26:02;;;;;;;25.77;5.30;;;;;;;;;;5062564;28;20029;-56
2021/01/17 13:28:28;;;;;;;4.95;1.45;;;;;;;;;;5058216;28;20052;-53
2021/01/17 13:30:53;;;;;;;14.45;7.53;;;;;;;;;;5066105;28;20032;-58
2021/01/17 13:33:19;;;;;;;12.95;6.40;;;;;;;;;;5077008;28;20036;-56
2021/01/17 13:35:45;;;;;;;7.85;4.00;;;;;;;;;;5064769;28;20047;-57
2021/01/17 13:38:11;;;;;;;8.73;3.83;;;;;;;;;;5065362;28;20028;-54
2021/01/17 13:40:36;;;;;;;11.65;7.05;;;;;;;;;;5064937;28;20029;-56
2021/01/17 13:43:02;;;;;;;14.32;3.72;;;;;;;;;;5082325;28;20039;-59
2021/01/17 13:45:28;;;;;;;13.75;11.77;;;;;;;;;;5066314;28;20525;-54
2021/01/17 13:47:54;;;;;;;6.30;5.65;;;;;;;;;;5066735;28;20025;-57
2021/01/17 13:50:20;;;;;;;14.10;3.13;;;;;;;;;;5066621;28;20058;-56
2021/01/17 13:52:45;;;;;;;6.57;5.32;;;;;;;;;;5065030;28;20025;-58
2021/01/17 13:55:11;;;;;;;14.30;6.22;;;;;;;;;;5065022;28;20364;-53
2021/01/17 13:57:37;;;;;;;9.18;4.78;;;;;;;;;;5065703;28;20032;-55
2021/01/17 14:00:04;;;;;;;9.13;6.55;;;;;;;;;;5065797;28;20028;-57
2021/01/17 14:02:29;;;;;;;11.57;6.65;;;;;;;;;;5068266;28;20393;-57
2021/01/17 14:04:54;;;;;;;9.02;3.58;;;;;;;;;;5068936;28;20040;-57
2021/01/17 14:07:20;;;;;;;6.55;2.38;;;;;;;;;;5069108;28;20107;-56
2021/01/17 14:09:45;;;;;;;10.38;6.28;;;;;;;;;;5068829;28;20377;-57
2021/01/17 14:12:11;;;;;;;7.88;3.65;;;;;;;;;;5069179;28;20032;-58
2021/01/17 14:14:36;;;;;;;4.00;2.70;;;;;;;;;;5068912;28;20032;-53
2021/01/17 14:17:02;;;;;;;7.65;4.32;;;;;;;;;;5068484;28;20186;-57
2021/01/17 14:19:28;;;;;;;11.10;9.93;;;;;;;;;;5069365;28;20023;-57
2021/01/17 14:21:53;;;;;;;4.80;2.90;;;;;;;;;;5069068;28;20039;-57
2021/01/17 14:24:19;;;;;;;4.63;1.95;;;;;;;;;;5068432;28;20025;-57
2021/01/17 14:26:44;;;;;;;8.52;1.73;;;;;;;;;;5069914;28;20028;-58
2021/01/17 14:29:11;;;;;;;6.13;2.30;;;;;;;;;;5069534;28;20386;-54
2021/01/17 14:31:37;;;;;;;12.52;7.20;;;;;;;;;;5061577;28;20043;-58